Ana Sayfa
METAR-TAF:

METAR-TAF

Havaalanları :

Pago Pago, ABD Küçük Dış Adaları

Enlem: 14-20S, Boylam: 170-43W, yükseklik: 3 m

Güncel hava durumu gözlemi

Rapor saat 01:52 UTC de 31 dakika önce yapıldı.
Rüzgar değişken yönden 4 kt
Sıcaklık 29°C
Nem 74%
Basınç 1007 hPa
Görüş mesafesi: 19.3 km
1900 ft yükseklikte parçalı bulutlu
12000 ft yükseklikte parçalı bulutlu

METAR: NSTU 270152Z VRB04KT 12SM SCT019 SCT120 29/24 A2975 RMK SLP075 T02870244

Saat: 15:23 (02:23 UTC)

Tahmin

Rapor saat 23:42 UTC de 2 saat ve 41 dakika önce yapıldı.
Ayın 27'si saat 00 UTC'den ayın 27'si saat 24 UTC'ye kadar geçerli Tahmin
Rüzgar doğu/güneydoğudan 6 kt
Görüş mesafesi: 10 km
2000 ft yükseklikte parçalı bulutlu
4000 ft yükseklikte parçalı bulutlu
10000 ft yükseklikte parçalı çok bulutlu
Civarda sağanaklar

TAF: NSTU 262342Z 2700/2724 12006KT P6SM VCSH SCT020 SCT040 BKN100

4.000'den fazla havaalanı için hava durumu gözlemleri ve tahminleri (METAR ve TAF raporları).

Kullanılabilir istasyonlar harita üzerinde sarı ve kırmızı noktalarla gösterilir.

İstasyonun adını görmek için fareyi noktanın üzerinde gezdirin.

Sonrasında hava gözlem ve tahminlerini görmek için tıklayın.

Haritayı değiştirmek için: yaklaştırmak için siyah artı işaretli yeşil düğmeye ve uzaklaştırmak için de eksi işaretli düğmeye hızla tıklayın; bitişik haritalar için yeşil okları kullanın.


METAR-TAF: